Detall de PIREP

Printer-friendly versionPDF version

[2012/10/01 11:07:00]
Flight IATA:CT2311
Pilot Number:012
Company ICAO:CAT
Aircraft Type:A343/E
PAX:295
Departing Airport: LIMC
Destination Airport: LIEA
Alternate Airport:LIEO
Online: VATSIM
Route:VOG UM858 AJO UM194 REVDO
Flight Level:F290
No Slew and time accel
No pause
Crash detect
Detect pilot in Cockpit between each 30 and 45 minutes
11:07 Zero fuel Weight: 342287 Lbs, Fuel Weight: 49232 Lbs
11:07 VATSIM:LIMC 011020Z 00000KT 9999 FEW015 BKN080 21/14 Q1017 NOSIG
11:07 VATSIM:LIEA 011020Z 27008KT 250V320 9999 FEW018 SCT025 23/18 Q1017
11:07 VOICE CATALONIAN
11:18 Parking Brakes off
11:23 Take-off
11:23 Take off Weight: 389931 Lbs
11:23 Wind: 000º @ 000 Knots Heading: 348º
11:23 POS N45º 37´ 43´´ E008º 43´ 25´´
11:23 Gear Up: 199 Knots
11:23 Flaps:2 at 199 Knots
11:23 Flaps:1 at 215 Knots
11:24 Flaps:0 at 233 Knots
11:29 TOC
11:29 Fuel Weight: 43872 Lb
11:38 Wind:000º@000 Knots Heading: 188º Ground Speed: 469 Knots Altitude 29005 ft
11:51 TOD
11:51 Fuel Weight: 40201 Lb
11:53 Wind:000º@000 Knots Heading: 184º Ground Speed: 464 Knots Altitude 25597 ft
12:08 Wind:000º@000 Knots Heading: 203º Ground Speed: 260 Knots Altitude 3782 ft
12:10 Flaps:1 at 218 Knots
12:11 Flaps:3 at 214 Knots
12:11 Gear Down: 200 Knots
12:11 Flaps:4 at 171 Knots
12:11 Flaps:5 at 168 Knots
12:15 TouchDown:Rate -256 ft/min Speed: 117 Knots
12:15 VATSIM:LIEA 011150Z 29008KT 260V340 9999 SCT025 22/17 Q1017
12:15 Land
12:15 Wind:000º@000 Knots
12:15 Heading: 204º
12:15 Flight Duration: 00:52
12:15 Landing Weight: 380404 Lbs
12:15 POS N40º 37´ 40´´ E008º 17´ 17´´
12:17 Parking brakes on
12:17 Block to Block Duration: 00:59
12:17 Final Fuel: 37910 Lbls
12:17 Spent Fuel: 11322 Lbls
12:17 Flight Length: 324 NM
12:17 TOD Land Length: 117NM

Exportar CSV

Powered by Drupal - Modified by Danger4k